createdAt,value
2023-03-23T15:58:17.918Z,47.66
2023-03-23T16:00:46.665Z,47.70
2023-03-23T16:03:27.679Z,47.73
2023-03-23T16:05:57.581Z,47.88
2023-03-23T16:08:26.359Z,47.86
2023-03-23T16:10:54.371Z,47.97
2023-03-23T16:13:23.073Z,47.98
2023-03-23T16:15:51.951Z,47.91
2023-03-23T16:18:21.586Z,47.94
2023-03-23T16:20:50.034Z,47.93
2023-03-23T16:23:18.121Z,47.82
2023-03-23T16:25:46.116Z,47.85
2023-03-23T16:28:14.775Z,47.69
2023-03-23T16:30:43.695Z,47.59
2023-03-23T16:33:11.648Z,47.60
2023-03-23T16:35:39.571Z,47.53
2023-03-23T16:38:09.196Z,47.73
2023-03-23T16:40:38.106Z,47.62
2023-03-23T16:43:09.344Z,47.71
2023-03-23T16:45:39.687Z,47.57
2023-03-23T16:48:09.886Z,47.61
2023-03-23T16:50:38.580Z,47.59
2023-03-23T16:53:08.163Z,47.61
2023-03-23T16:55:37.311Z,47.57
2023-03-23T16:58:16.224Z,47.65
2023-03-23T17:00:49.914Z,47.78
2023-03-23T17:03:19.254Z,47.85
2023-03-23T17:05:51.131Z,47.94
2023-03-23T17:08:19.716Z,47.90
2023-03-23T17:10:48.385Z,47.91
2023-03-23T17:13:17.561Z,47.84
2023-03-23T17:15:47.192Z,47.84
2023-03-23T17:18:16.580Z,47.88
2023-03-23T17:20:44.802Z,48.01
2023-03-23T17:23:12.847Z,48.11
2023-03-23T17:25:40.940Z,48.30
2023-03-23T17:28:09.075Z,48.21
2023-03-23T17:30:39.499Z,48.20
2023-03-23T17:33:07.452Z,48.33
2023-03-23T17:35:35.465Z,48.40
2023-03-23T17:38:03.421Z,48.31
2023-03-23T17:40:31.325Z,48.38
2023-03-23T17:42:59.301Z,48.51
2023-03-23T17:45:27.328Z,48.70
2023-03-23T17:47:55.372Z,48.66
2023-03-23T17:50:23.390Z,48.78
2023-03-23T17:52:51.418Z,48.78
2023-03-23T17:55:19.428Z,48.80
2023-03-23T17:57:47.458Z,48.83
2023-03-23T18:00:15.946Z,48.88
2023-03-23T18:02:44.054Z,48.89
2023-03-23T18:05:12.911Z,49.08
2023-03-23T18:07:41.151Z,49.03
2023-03-23T18:10:12.832Z,49.01
2023-03-23T18:12:41.887Z,49.13
2023-03-23T18:15:10.700Z,49.14
2023-03-23T18:17:38.983Z,49.16
2023-03-23T18:20:07.791Z,49.19
2023-03-23T18:22:36.033Z,49.22
2023-03-23T18:25:05.209Z,49.22
2023-03-23T18:27:33.409Z,49.32
2023-03-23T18:30:03.052Z,49.55
2023-03-23T18:32:31.514Z,49.56
2023-03-23T18:34:59.559Z,49.72
2023-03-23T18:37:27.618Z,49.79
2023-03-23T18:39:55.915Z,49.91
2023-03-23T18:42:24.088Z,49.98
2023-03-23T18:44:54.080Z,49.99
2023-03-23T18:47:22.205Z,50.16
2023-03-23T18:49:53.808Z,50.15
2023-03-23T18:52:22.420Z,50.25
2023-03-23T18:54:50.470Z,50.23
2023-03-23T18:57:21.412Z,50.25
2023-03-23T18:59:49.790Z,50.28
2023-03-23T19:02:18.949Z,50.36
2023-03-23T19:04:47.680Z,50.38
2023-03-23T19:07:16.595Z,50.43
2023-03-23T19:09:46.309Z,50.49
2023-03-23T19:12:15.724Z,50.40
2023-03-23T19:14:44.521Z,50.37
2023-03-23T19:17:12.675Z,50.46
2023-03-23T19:19:43.145Z,50.52
2023-03-23T19:22:12.270Z,50.49
2023-03-23T19:24:40.533Z,50.56
2023-03-23T19:27:09.410Z,50.60
2023-03-23T19:29:37.569Z,50.70
2023-03-23T19:32:05.627Z,50.65
2023-03-23T19:34:33.813Z,50.79
2023-03-23T19:37:05.985Z,50.71
2023-03-23T19:39:40.453Z,50.67
2023-03-23T19:42:09.793Z,50.75
2023-03-23T19:44:37.801Z,50.79
2023-03-23T19:47:05.814Z,50.78
2023-03-23T19:49:33.798Z,50.86
2023-03-23T19:52:07.912Z,50.92
2023-03-23T19:54:37.700Z,50.93
2023-03-23T19:57:05.872Z,50.88
2023-03-23T19:59:33.983Z,51.04
2023-03-23T20:02:02.334Z,51.01
2023-03-23T20:04:30.716Z,51.08
2023-03-23T20:06:59.180Z,51.12
2023-03-23T20:09:27.006Z,51.06
2023-03-23T20:11:54.915Z,51.10
2023-03-23T20:14:22.825Z,51.20
2023-03-23T20:16:52.746Z,51.37
2023-03-23T20:19:21.630Z,51.39
2023-03-23T20:21:49.664Z,51.33
2023-03-23T20:24:17.653Z,51.33
2023-03-23T20:26:45.675Z,51.33
2023-03-23T20:29:13.546Z,51.44
2023-03-23T20:31:42.179Z,51.51
2023-03-23T20:34:11.815Z,51.47
2023-03-23T20:36:42.260Z,51.42
2023-03-23T20:39:15.048Z,51.50
2023-03-23T20:41:43.716Z,51.48
2023-03-23T20:44:14.284Z,51.51
2023-03-23T20:46:46.551Z,51.55
2023-03-23T20:49:15.979Z,51.56
2023-03-23T20:51:44.999Z,51.57
2023-03-23T20:54:15.684Z,51.47
2023-03-23T20:56:44.540Z,51.51
2023-03-23T20:59:13.309Z,51.62
2023-03-23T21:01:41.388Z,51.63
2023-03-23T21:04:15.363Z,51.67
2023-03-23T21:06:44.288Z,51.64
2023-03-23T21:09:13.020Z,51.77
2023-03-23T21:11:42.026Z,51.80
2023-03-23T21:14:10.561Z,51.73
2023-03-23T21:16:39.002Z,51.81
2023-03-23T21:19:07.563Z,51.79
2023-03-23T21:21:35.759Z,51.86
2023-03-23T21:24:03.814Z,51.87
2023-03-23T21:26:31.779Z,51.86
2023-03-23T21:29:00.706Z,51.85
2023-03-23T21:31:30.770Z,51.94
2023-03-23T21:33:59.257Z,51.95
2023-03-23T21:36:27.546Z,51.91
2023-03-23T21:38:56.088Z,51.88
2023-03-23T21:41:24.589Z,51.87
2023-03-23T21:43:52.458Z,51.92
2023-03-23T21:46:20.368Z,51.95
2023-03-23T21:48:52.158Z,51.91
2023-03-23T21:51:22.628Z,51.87
2023-03-23T21:53:54.206Z,51.87
2023-03-23T21:56:23.675Z,51.82
2023-03-23T21:58:51.939Z,51.81
2023-03-23T22:01:20.282Z,51.81
2023-03-23T22:03:48.950Z,51.87
2023-03-23T22:06:18.935Z,51.90
2023-03-23T22:08:47.775Z,51.90
2023-03-23T22:11:18.024Z,51.94
2023-03-23T22:13:46.170Z,51.98
2023-03-23T22:16:15.130Z,51.95
2023-03-23T22:18:45.307Z,51.89
2023-03-23T22:21:14.272Z,51.88
2023-03-23T22:23:42.966Z,51.94
2023-03-23T22:26:11.019Z,52.08
2023-03-23T22:28:39.447Z,52.03
2023-03-23T22:38:12.662Z,52.02
2023-03-23T22:40:42.925Z,52.04
2023-03-23T22:43:11.870Z,52.05
2023-03-23T22:45:40.425Z,52.13
2023-03-23T22:48:09.602Z,52.15
2023-03-23T22:50:38.508Z,52.26
2023-03-23T22:53:07.588Z,52.26
2023-03-23T22:55:36.212Z,52.20
2023-03-23T22:58:04.358Z,52.23
2023-03-23T23:00:32.592Z,52.18
2023-03-23T23:03:01.194Z,52.29
2023-03-23T23:05:29.412Z,52.32
2023-03-23T23:07:57.562Z,52.38
2023-03-23T23:10:26.461Z,52.37
2023-03-23T23:12:54.823Z,52.42
2023-03-23T23:15:24.659Z,52.47
2023-03-23T23:17:54.336Z,52.32
2023-03-23T23:20:24.613Z,52.50
2023-03-23T23:22:53.233Z,52.58
2023-03-23T23:25:21.471Z,52.46
2023-03-23T23:27:50.256Z,52.45
2023-03-23T23:30:18.408Z,52.71
2023-03-23T23:32:48.045Z,52.57
2023-03-23T23:35:16.879Z,52.58
2023-03-23T23:37:46.582Z,52.58
2023-03-23T23:40:15.790Z,52.73
2023-03-23T23:42:45.301Z,52.65
2023-03-23T23:45:15.587Z,52.73
2023-03-23T23:47:43.834Z,52.76
2023-03-23T23:50:12.660Z,52.76
2023-03-23T23:52:42.640Z,52.78
2023-03-23T23:55:13.092Z,52.79
2023-03-23T23:57:41.928Z,52.86
